createdAt,value
2023-02-06T00:01:29.816Z,32.45
2023-02-06T00:03:57.649Z,26.38
2023-02-06T00:06:25.696Z,33.10
2023-02-06T00:08:53.402Z,32.33
2023-02-06T00:11:21.848Z,35.75
2023-02-06T00:13:49.454Z,30.92
2023-02-06T00:16:19.838Z,32.05
2023-02-06T00:18:48.992Z,41.30
2023-02-06T00:21:20.242Z,36.40
2023-02-06T00:23:53.751Z,43.22
2023-02-06T00:26:21.925Z,43.58
2023-02-06T00:28:49.387Z,32.55
2023-02-06T00:31:17.462Z,34.00
2023-02-06T00:33:45.200Z,37.88
2023-02-06T00:36:13.078Z,37.28
2023-02-06T00:38:40.720Z,32.05
2023-02-06T00:41:08.619Z,35.45
2023-02-06T00:43:36.609Z,37.17
2023-02-06T00:46:04.539Z,36.60
2023-02-06T00:48:32.332Z,35.15
2023-02-06T00:51:00.128Z,32.60
2023-02-06T00:53:27.663Z,36.40
2023-02-06T00:55:55.454Z,30.70
2023-02-06T00:58:23.136Z,35.10
2023-02-06T01:00:51.761Z,31.85
2023-02-06T01:03:19.500Z,34.03
2023-02-06T01:05:47.358Z,33.33
2023-02-06T01:08:15.107Z,33.13
2023-02-06T01:10:43.492Z,30.05
2023-02-06T01:13:11.380Z,35.67
2023-02-06T01:15:41.880Z,36.05
2023-02-06T01:18:09.723Z,33.20
2023-02-06T01:20:39.225Z,32.38
2023-02-06T01:23:06.775Z,35.55
2023-02-06T01:25:34.697Z,38.55
2023-02-06T01:28:02.563Z,33.40
2023-02-06T01:30:31.059Z,33.13
2023-02-06T01:32:58.804Z,38.35
2023-02-06T01:35:26.790Z,35.67
2023-02-06T01:37:54.261Z,37.53
2023-02-06T01:40:22.150Z,27.48
2023-02-06T01:42:49.738Z,31.00
2023-02-06T01:45:26.236Z,32.55
2023-02-06T01:48:04.392Z,40.40
2023-02-06T01:50:34.477Z,35.88
2023-02-06T01:53:04.448Z,40.42
2023-02-06T01:55:32.742Z,30.63
2023-02-06T01:58:01.720Z,44.05
2023-02-06T02:00:29.474Z,34.65
2023-02-06T02:02:57.358Z,33.45
2023-02-06T02:05:25.439Z,34.53
2023-02-06T02:08:01.437Z,42.63
2023-02-06T02:10:31.607Z,35.15
2023-02-06T02:12:59.276Z,31.02
2023-02-06T02:15:46.141Z,35.17
2023-02-06T02:18:50.890Z,38.42
2023-02-06T02:21:56.051Z,37.00
2023-02-06T02:24:32.844Z,36.58
2023-02-06T02:27:25.537Z,53.45
2023-02-06T02:30:12.522Z,32.88
2023-02-06T02:32:58.643Z,38.58
2023-02-06T02:35:51.011Z,34.17
2023-02-06T02:38:25.603Z,33.40
2023-02-06T02:41:05.317Z,51.90
2023-02-06T02:43:35.864Z,36.65
2023-02-06T02:46:31.538Z,40.85
2023-02-06T02:49:07.258Z,35.08
2023-02-06T02:51:36.591Z,35.35
2023-02-06T02:54:04.342Z,41.00
2023-02-06T02:56:33.577Z,39.45
2023-02-06T02:59:13.543Z,43.50
2023-02-06T03:01:52.163Z,36.45
2023-02-06T03:04:25.911Z,33.28
2023-02-06T03:06:59.646Z,43.22
2023-02-06T03:09:52.704Z,36.15
2023-02-06T03:12:27.677Z,34.88
2023-02-06T03:15:01.315Z,36.80
2023-02-06T03:17:41.724Z,32.67
2023-02-06T03:20:11.511Z,34.60
2023-02-06T03:22:39.931Z,35.10
2023-02-06T03:25:12.734Z,36.60
2023-02-06T03:27:43.180Z,30.50
2023-02-06T03:30:13.969Z,33.45
2023-02-06T03:32:45.323Z,31.33
2023-02-06T03:35:21.692Z,37.20
2023-02-06T03:37:50.120Z,33.28
2023-02-06T03:40:18.157Z,33.05
2023-02-06T03:42:52.683Z,28.77
2023-02-06T03:45:28.172Z,34.13
2023-02-06T03:48:00.341Z,40.63
2023-02-06T03:50:28.488Z,31.52
2023-02-06T03:52:59.195Z,31.08
2023-02-06T03:55:26.800Z,33.63
2023-02-06T03:58:01.446Z,40.22
2023-02-06T04:00:30.918Z,28.88
2023-02-06T04:03:00.084Z,27.90
2023-02-06T04:05:27.896Z,31.67
2023-02-06T04:07:56.690Z,25.33
2023-02-06T04:10:26.290Z,31.38
2023-02-06T04:12:54.492Z,32.17
2023-02-06T04:15:22.392Z,37.00
2023-02-06T04:18:00.168Z,39.45
2023-02-06T04:20:29.052Z,26.95
2023-02-06T04:22:57.393Z,34.28
2023-02-06T04:25:25.140Z,30.65
2023-02-06T04:27:52.717Z,30.33
2023-02-06T04:30:20.151Z,29.88
2023-02-06T04:32:47.612Z,38.67
2023-02-06T04:35:15.129Z,33.10
2023-02-06T04:37:42.628Z,40.40
2023-02-06T04:40:10.772Z,32.10
2023-02-06T04:42:38.227Z,39.58
2023-02-06T04:45:06.012Z,35.63
2023-02-06T04:47:33.592Z,30.23
2023-02-06T04:50:01.031Z,31.25
2023-02-06T04:52:28.498Z,34.28
2023-02-06T04:54:55.982Z,31.80
2023-02-06T04:57:24.559Z,36.75
2023-02-06T04:59:52.108Z,40.90
2023-02-06T05:02:19.551Z,25.60
2023-02-06T05:04:47.058Z,33.38
2023-02-06T05:07:14.427Z,25.73
2023-02-06T05:09:41.881Z,32.30
2023-02-06T05:12:09.418Z,30.45
2023-02-06T05:14:36.896Z,35.53
2023-02-06T05:17:04.385Z,27.05
2023-02-06T05:19:31.827Z,33.92
2023-02-06T05:21:59.311Z,36.30
2023-02-06T05:24:26.882Z,32.28
2023-02-06T05:26:57.836Z,33.38
2023-02-06T05:29:26.610Z,41.33
2023-02-06T05:31:54.229Z,26.63
2023-02-06T05:34:21.703Z,36.17
2023-02-06T05:36:49.102Z,40.08
2023-02-06T05:39:16.629Z,24.35
2023-02-06T05:41:44.039Z,26.58
2023-02-06T05:44:11.591Z,28.92
2023-02-06T05:46:39.193Z,32.38
2023-02-06T05:49:06.729Z,33.38
2023-02-06T05:51:34.283Z,37.20
2023-02-06T05:54:01.971Z,39.70
2023-02-06T05:56:29.487Z,28.23
2023-02-06T05:58:57.009Z,33.67
2023-02-06T06:01:24.532Z,33.70
2023-02-06T06:03:52.020Z,29.33
2023-02-06T06:06:19.610Z,32.33
2023-02-06T06:08:47.108Z,36.20
2023-02-06T06:11:14.570Z,27.02
2023-02-06T06:13:41.930Z,27.55
2023-02-06T06:16:09.564Z,27.45
2023-02-06T06:18:37.253Z,27.30
2023-02-06T06:21:04.836Z,30.08
2023-02-06T06:23:32.295Z,31.92
2023-02-06T06:25:59.766Z,34.83
2023-02-06T06:28:27.272Z,38.33
2023-02-06T06:31:06.747Z,40.92
2023-02-06T06:33:34.584Z,28.25
2023-02-06T06:36:01.963Z,37.58
2023-02-06T06:38:29.330Z,43.80
2023-02-06T06:40:57.112Z,37.47
2023-02-06T06:43:24.846Z,34.60
2023-02-06T06:45:52.500Z,33.33
2023-02-06T06:48:19.906Z,29.00
2023-02-06T06:50:49.453Z,29.30
2023-02-06T06:53:16.987Z,30.55
2023-02-06T06:55:44.606Z,33.08
2023-02-06T06:58:11.996Z,49.15
2023-02-06T07:00:40.432Z,28.40
2023-02-06T07:03:08.350Z,26.83
2023-02-06T07:05:36.252Z,27.73
2023-02-06T07:08:04.096Z,25.98
2023-02-06T07:10:31.838Z,24.88
2023-02-06T07:12:59.600Z,33.42
2023-02-06T07:15:27.186Z,38.45
2023-02-06T07:17:54.573Z,34.13
2023-02-06T07:20:22.011Z,25.70
2023-02-06T07:22:50.299Z,29.77
2023-02-06T07:25:20.058Z,31.63
2023-02-06T07:27:48.103Z,33.17
2023-02-06T07:30:15.723Z,31.58
2023-02-06T07:32:43.253Z,30.15
2023-02-06T07:35:11.294Z,31.73
2023-02-06T07:37:38.713Z,22.63
2023-02-06T07:40:06.561Z,33.42
2023-02-06T07:42:34.115Z,31.35
2023-02-06T07:45:10.504Z,34.78
2023-02-06T07:47:37.873Z,37.05
2023-02-06T07:50:05.944Z,35.00
2023-02-06T07:52:33.503Z,22.67
2023-02-06T07:55:00.975Z,26.30
2023-02-06T07:57:28.424Z,28.10
2023-02-06T07:59:55.939Z,27.88
2023-02-06T08:02:23.354Z,22.23
2023-02-06T08:04:50.729Z,28.05
2023-02-06T08:07:18.278Z,25.08
2023-02-06T08:09:45.865Z,22.15
2023-02-06T08:12:13.466Z,36.75
2023-02-06T08:14:40.894Z,25.95
2023-02-06T08:17:08.436Z,30.65
2023-02-06T08:19:35.862Z,29.70
2023-02-06T08:22:03.368Z,39.25
2023-02-06T08:24:31.168Z,32.22
2023-02-06T08:26:58.536Z,24.73
2023-02-06T08:29:26.239Z,18.05
2023-02-06T08:31:53.796Z,26.75
2023-02-06T08:34:21.309Z,39.80
2023-02-06T08:36:48.850Z,32.20
2023-02-06T08:39:18.115Z,30.08
2023-02-06T08:41:45.826Z,31.55
2023-02-06T08:44:16.196Z,28.45
2023-02-06T08:46:45.053Z,27.95
2023-02-06T08:49:16.184Z,29.65
2023-02-06T08:51:44.109Z,29.33
2023-02-06T08:54:20.025Z,30.00
2023-02-06T08:56:48.543Z,40.10
2023-02-06T08:59:17.543Z,30.83
2023-02-06T09:01:46.336Z,23.52
2023-02-06T09:04:14.913Z,35.67
2023-02-06T09:06:44.588Z,27.55
2023-02-06T09:09:12.919Z,30.60
2023-02-06T09:11:40.556Z,33.90
2023-02-06T09:14:11.149Z,28.92
2023-02-06T09:16:38.812Z,30.60
2023-02-06T09:19:06.736Z,27.75
2023-02-06T09:21:36.138Z,28.88
2023-02-06T09:24:06.945Z,31.67
2023-02-06T09:26:53.391Z,29.08
2023-02-06T09:29:24.892Z,28.83
2023-02-06T09:31:52.484Z,29.35
2023-02-06T09:34:19.837Z,41.63
2023-02-06T09:36:47.278Z,38.42
2023-02-06T09:39:14.777Z,36.60
2023-02-06T09:41:45.409Z,30.83
2023-02-06T09:44:19.972Z,31.77
2023-02-06T09:47:18.395Z,29.58
2023-02-06T09:50:07.912Z,37.78
2023-02-06T09:52:59.267Z,32.00
2023-02-06T09:55:43.830Z,28.52
2023-02-06T09:58:19.238Z,24.40
2023-02-06T10:01:17.638Z,24.95
2023-02-06T10:04:20.124Z,27.88
2023-02-06T10:07:02.862Z,24.35
2023-02-06T10:09:53.915Z,30.20
2023-02-06T10:12:38.351Z,22.23
2023-02-06T10:15:28.316Z,26.10
2023-02-06T10:18:22.068Z,38.05
2023-02-06T10:21:12.656Z,31.80
2023-02-06T10:23:55.840Z,19.50
2023-02-06T10:26:23.787Z,28.00
2023-02-06T10:28:58.105Z,23.63
2023-02-06T10:31:25.646Z,21.63
2023-02-06T10:34:41.281Z,26.95
2023-02-06T10:37:08.893Z,15.25
2023-02-06T10:39:42.235Z,19.60
2023-02-06T10:42:31.699Z,20.88
2023-02-06T10:45:19.284Z,20.40
2023-02-06T10:48:35.738Z,24.63
2023-02-06T10:51:24.846Z,34.65
2023-02-06T10:53:57.053Z,22.38
2023-02-06T10:56:28.581Z,27.35
2023-02-06T10:59:10.982Z,17.92
2023-02-06T11:01:40.875Z,26.02
2023-02-06T11:04:16.894Z,17.33
2023-02-06T11:06:46.870Z,18.45
2023-02-06T11:09:15.722Z,18.93
2023-02-06T11:11:48.534Z,14.55
2023-02-06T11:14:21.144Z,18.15
2023-02-06T11:16:49.224Z,43.70
2023-02-06T11:19:33.494Z,24.33
2023-02-06T11:22:07.545Z,16.98
2023-02-06T11:24:36.822Z,20.77
2023-02-06T11:27:20.565Z,16.40
2023-02-06T11:29:51.964Z,22.10
2023-02-06T11:32:36.031Z,63.72
2023-02-06T11:35:14.764Z,36.67
2023-02-06T11:37:42.633Z,34.08
2023-02-06T11:40:19.642Z,39.63
2023-02-06T11:42:52.669Z,18.77
2023-02-06T11:45:25.530Z,19.30
2023-02-06T11:47:53.589Z,17.17
2023-02-06T11:50:31.535Z,11.57
2023-02-06T11:53:09.192Z,14.30
2023-02-06T11:55:38.865Z,15.95
2023-02-06T11:58:12.396Z,10.85
2023-02-06T12:01:02.645Z,19.17
2023-02-06T12:03:49.662Z,13.50
2023-02-06T12:06:32.948Z,11.27
2023-02-06T12:09:03.342Z,12.57
2023-02-06T12:11:40.336Z,7.25
2023-02-06T12:14:42.227Z,16.60
2023-02-06T12:17:30.854Z,11.15
2023-02-06T12:20:14.667Z,15.23
2023-02-06T12:22:54.052Z,8.52
2023-02-06T12:25:50.976Z,10.63
2023-02-06T12:28:24.062Z,14.05
2023-02-06T12:30:58.839Z,10.50
2023-02-06T12:33:54.027Z,10.18
2023-02-06T12:36:33.068Z,12.13
2023-02-06T12:39:13.236Z,9.30
2023-02-06T12:41:49.739Z,11.55
2023-02-06T12:44:32.479Z,12.80
2023-02-06T12:47:16.000Z,9.48
2023-02-06T12:50:14.185Z,11.25
2023-02-06T12:52:56.858Z,10.98
2023-02-06T12:55:39.535Z,8.25
2023-02-06T12:58:25.003Z,13.10
2023-02-06T13:01:34.590Z,10.25
2023-02-06T13:04:06.834Z,9.30
2023-02-06T13:06:53.194Z,10.57
2023-02-06T13:09:52.793Z,17.80
2023-02-06T13:12:26.143Z,8.63
2023-02-06T13:15:04.354Z,8.93
2023-02-06T13:17:40.273Z,10.48
2023-02-06T13:20:13.814Z,11.50
2023-02-06T13:22:46.189Z,7.35
2023-02-06T13:25:25.796Z,8.57
2023-02-06T13:27:54.361Z,14.45
2023-02-06T13:30:29.026Z,12.00
2023-02-06T13:33:08.778Z,9.73
2023-02-06T13:35:58.325Z,13.75
2023-02-06T13:38:34.997Z,8.93
2023-02-06T13:41:14.813Z,7.90
2023-02-06T13:43:44.968Z,11.37
2023-02-06T13:46:17.476Z,8.20
2023-02-06T13:49:09.443Z,9.85
2023-02-06T13:52:06.956Z,8.32
2023-02-06T13:55:00.932Z,6.93
2023-02-06T13:57:50.190Z,9.88
2023-02-06T14:00:22.952Z,11.02
2023-02-06T14:03:13.324Z,6.13
2023-02-06T14:06:15.325Z,7.38
2023-02-06T14:08:54.976Z,10.48
2023-02-06T14:12:03.427Z,12.55
2023-02-06T14:15:08.720Z,12.93
2023-02-06T14:18:20.862Z,7.88
2023-02-06T14:21:26.157Z,7.95
2023-02-06T14:24:18.249Z,8.40
2023-02-06T14:27:27.497Z,7.28
2023-02-06T14:30:28.739Z,8.77
2023-02-06T14:33:01.977Z,11.65
2023-02-06T14:35:55.229Z,16.08
2023-02-06T14:38:48.816Z,12.15
2023-02-06T14:41:17.338Z,8.82
2023-02-06T14:43:47.724Z,8.05
2023-02-06T14:46:18.404Z,11.98
2023-02-06T14:49:14.111Z,12.65
2023-02-06T14:51:41.971Z,12.65
2023-02-06T14:54:38.585Z,13.30
2023-02-06T14:57:16.386Z,6.82
2023-02-06T14:59:55.298Z,8.55
2023-02-06T15:02:43.477Z,9.18
2023-02-06T15:05:24.813Z,9.65
2023-02-06T15:08:00.427Z,7.93
2023-02-06T15:10:30.920Z,9.52
2023-02-06T15:12:58.585Z,6.57
2023-02-06T15:15:29.067Z,6.80
2023-02-06T15:18:02.492Z,9.80
2023-02-06T15:20:37.429Z,11.50
2023-02-06T15:23:17.741Z,11.93
2023-02-06T15:25:59.116Z,8.25
2023-02-06T15:30:58.970Z,13.57
2023-02-06T15:33:31.722Z,9.73
2023-02-06T15:36:01.703Z,9.52
2023-02-06T15:38:32.951Z,14.23
2023-02-06T15:41:04.412Z,16.00
2023-02-06T15:43:33.625Z,13.43
2023-02-06T15:46:04.798Z,13.45
2023-02-06T15:48:59.287Z,13.20
2023-02-06T15:51:29.421Z,14.80
2023-02-06T15:54:17.829Z,11.30
2023-02-06T15:57:08.309Z,11.65
2023-02-06T15:59:40.121Z,12.73
2023-02-06T16:02:16.764Z,15.48
2023-02-06T16:04:44.302Z,12.90
2023-02-06T16:07:17.535Z,14.63
2023-02-06T16:09:53.414Z,13.20
2023-02-06T16:12:21.771Z,12.57
2023-02-06T16:14:58.796Z,10.18
2023-02-06T16:17:34.858Z,17.30
2023-02-06T16:20:23.780Z,14.80
2023-02-06T16:22:56.950Z,15.07
2023-02-06T16:25:30.372Z,20.35
2023-02-06T16:27:58.796Z,27.88
2023-02-06T16:30:29.686Z,21.67
2023-02-06T16:33:00.074Z,19.25
2023-02-06T16:35:27.956Z,43.20
2023-02-06T16:37:55.367Z,31.85
2023-02-06T16:40:23.189Z,17.20
2023-02-06T16:42:50.734Z,18.83
2023-02-06T16:45:24.747Z,18.75
2023-02-06T16:47:53.667Z,21.10
2023-02-06T16:50:22.061Z,15.63
2023-02-06T16:52:52.278Z,15.20
2023-02-06T16:55:23.478Z,24.50
2023-02-06T16:57:58.618Z,15.52
2023-02-06T17:00:31.436Z,13.73
2023-02-06T17:02:59.379Z,47.65
2023-02-06T17:05:28.467Z,17.13
2023-02-06T17:07:55.924Z,14.80
2023-02-06T17:10:26.087Z,14.30
2023-02-06T17:12:54.162Z,11.88
2023-02-06T17:15:22.372Z,18.90
2023-02-06T17:17:49.845Z,19.13
2023-02-06T17:20:32.575Z,20.50
2023-02-06T17:23:00.104Z,20.85
2023-02-06T17:25:27.488Z,24.73
2023-02-06T17:27:55.264Z,19.38
2023-02-06T17:30:25.847Z,27.88
2023-02-06T17:32:53.485Z,21.95
2023-02-06T17:35:21.079Z,18.80
2023-02-06T17:37:49.216Z,25.60
2023-02-06T17:40:20.408Z,15.60
2023-02-06T17:42:49.067Z,14.90
2023-02-06T17:45:16.949Z,17.55
2023-02-06T17:47:44.463Z,19.63
2023-02-06T17:50:17.471Z,18.98
2023-02-06T17:52:45.061Z,30.85
2023-02-06T17:55:12.842Z,31.40
2023-02-06T17:57:40.300Z,39.08
2023-02-06T18:00:12.997Z,67.75
2023-02-06T18:02:40.541Z,78.40
2023-02-06T18:05:08.400Z,102.63
2023-02-06T18:07:38.217Z,54.53
2023-02-06T18:10:06.703Z,39.35
2023-02-06T18:12:34.659Z,45.50
2023-02-06T18:15:02.323Z,51.88
2023-02-06T18:17:31.134Z,39.80
2023-02-06T18:19:58.616Z,49.40
2023-02-06T18:22:26.400Z,42.75
2023-02-06T18:24:53.951Z,51.50
2023-02-06T18:27:23.430Z,35.42
2023-02-06T18:29:54.958Z,33.95
2023-02-06T18:32:22.707Z,29.70
2023-02-06T18:34:51.102Z,33.10
2023-02-06T18:37:18.797Z,43.75
2023-02-06T18:39:46.462Z,48.83
2023-02-06T18:42:32.362Z,69.03
2023-02-06T18:44:59.864Z,64.22
2023-02-06T18:47:27.427Z,57.42
2023-02-06T18:49:55.201Z,78.20
2023-02-06T18:52:22.721Z,62.97
2023-02-06T18:54:50.504Z,56.03
2023-02-06T18:57:17.895Z,50.15
2023-02-06T18:59:45.547Z,44.95
2023-02-06T19:02:13.351Z,31.83
2023-02-06T19:04:41.291Z,40.25
2023-02-06T19:07:09.969Z,45.85
2023-02-06T19:09:38.075Z,31.10
2023-02-06T19:12:05.895Z,36.15
2023-02-06T19:14:33.786Z,41.22
2023-02-06T19:17:01.805Z,48.35
2023-02-06T19:19:29.683Z,35.88
2023-02-06T19:21:57.818Z,36.58
2023-02-06T19:24:26.236Z,45.50
2023-02-06T19:26:54.212Z,37.58
2023-02-06T19:29:34.782Z,43.67
2023-02-06T19:32:08.071Z,33.40
2023-02-06T19:34:38.409Z,31.80
2023-02-06T19:37:09.757Z,34.95
2023-02-06T19:39:40.233Z,24.95
2023-02-06T19:42:10.059Z,22.13
2023-02-06T19:44:37.998Z,25.25
2023-02-06T19:47:05.851Z,26.50
2023-02-06T19:49:36.543Z,24.40
2023-02-06T19:52:04.505Z,31.45
2023-02-06T19:54:32.034Z,26.25
2023-02-06T19:57:00.613Z,28.48
2023-02-06T19:59:29.568Z,29.23
2023-02-06T20:02:02.003Z,31.08
2023-02-06T20:04:34.284Z,33.55
2023-02-06T20:07:02.695Z,37.65
2023-02-06T20:09:30.871Z,39.15
2023-02-06T20:11:58.962Z,32.70
2023-02-06T20:14:26.880Z,44.58
2023-02-06T20:16:54.687Z,37.55
2023-02-06T20:19:27.464Z,37.67
2023-02-06T20:21:57.766Z,41.13
2023-02-06T20:24:29.031Z,33.30
2023-02-06T20:27:00.196Z,31.02
2023-02-06T20:31:57.239Z,35.08
2023-02-06T20:34:25.568Z,42.65
2023-02-06T20:36:53.614Z,36.03
2023-02-06T20:39:21.668Z,31.48
2023-02-06T20:41:50.326Z,40.13
2023-02-06T20:44:19.297Z,33.60
2023-02-06T20:46:49.163Z,44.30
2023-02-06T20:49:26.265Z,31.83
2023-02-06T20:51:54.314Z,33.17
2023-02-06T20:54:22.506Z,33.75
2023-02-06T20:56:50.537Z,42.58
2023-02-06T20:59:19.848Z,31.27
2023-02-06T21:01:47.598Z,30.73
2023-02-06T21:04:16.760Z,29.63
2023-02-06T21:06:45.106Z,47.17
2023-02-06T21:09:12.712Z,31.70
2023-02-06T21:11:44.240Z,36.20
2023-02-06T21:14:13.566Z,38.38
2023-02-06T21:16:42.451Z,39.67
2023-02-06T21:19:11.658Z,39.25
2023-02-06T21:21:40.225Z,38.65
2023-02-06T21:24:08.738Z,36.42
2023-02-06T21:26:36.720Z,35.53
2023-02-06T21:29:07.705Z,34.45
2023-02-06T21:31:38.324Z,33.38
2023-02-06T21:34:19.247Z,33.38
2023-02-06T21:36:47.265Z,35.65
2023-02-06T21:39:20.686Z,29.70
2023-02-06T21:41:51.657Z,51.13
2023-02-06T21:44:19.890Z,34.42
2023-02-06T21:46:47.370Z,58.35
2023-02-06T21:49:15.111Z,44.92
2023-02-06T21:51:42.862Z,38.90
2023-02-06T21:54:10.325Z,40.72
2023-02-06T21:56:38.561Z,34.03
2023-02-06T21:59:07.714Z,40.08
2023-02-06T22:01:35.710Z,34.75
2023-02-06T22:04:03.847Z,40.85
2023-02-06T22:06:32.851Z,28.90
2023-02-06T22:09:07.406Z,40.58
2023-02-06T22:11:39.559Z,42.88
2023-02-06T22:14:10.786Z,41.50
2023-02-06T22:16:38.287Z,25.77
2023-02-06T22:19:06.468Z,24.42
2023-02-06T22:21:34.755Z,36.20
2023-02-06T22:24:07.322Z,34.05
2023-02-06T22:26:38.577Z,27.30
2023-02-06T22:29:08.665Z,32.42
2023-02-06T22:31:40.353Z,32.10
2023-02-06T22:34:11.817Z,33.78
2023-02-06T22:36:39.632Z,26.33
2023-02-06T22:39:08.846Z,32.58
2023-02-06T22:41:39.701Z,32.33
2023-02-06T22:44:08.331Z,31.83
2023-02-06T22:46:38.553Z,39.28
2023-02-06T22:49:08.069Z,40.47
2023-02-06T22:51:36.956Z,37.78
2023-02-06T22:54:05.755Z,40.90
2023-02-06T22:56:37.336Z,37.00
2023-02-06T22:59:08.181Z,31.08
2023-02-06T23:04:17.957Z,28.95
2023-02-06T23:06:46.624Z,36.50
2023-02-06T23:09:28.850Z,29.23
2023-02-06T23:11:58.395Z,30.60
2023-02-06T23:14:26.763Z,25.23
2023-02-06T23:16:54.545Z,31.88
2023-02-06T23:19:22.930Z,33.38
2023-02-06T23:21:53.590Z,31.08
2023-02-06T23:24:21.353Z,31.45
2023-02-06T23:26:50.472Z,34.72
2023-02-06T23:29:20.126Z,31.95
2023-02-06T23:31:48.558Z,29.55
2023-02-06T23:34:17.161Z,29.75
2023-02-06T23:36:44.981Z,39.28
2023-02-06T23:39:12.743Z,29.23
2023-02-06T23:41:40.457Z,25.65
2023-02-06T23:44:08.958Z,35.85
2023-02-06T23:46:38.512Z,30.42
2023-02-06T23:49:06.760Z,33.78
2023-02-06T23:51:35.166Z,34.78
2023-02-06T23:54:02.840Z,23.50
2023-02-06T23:56:31.672Z,27.27
2023-02-06T23:59:00.653Z,23.25
